createdAt,value
2023-04-25T00:00:51.564Z,619.00
2023-04-25T00:01:51.622Z,619.00
2023-04-25T00:02:51.813Z,617.00
2023-04-25T00:03:52.223Z,619.00
2023-04-25T00:04:51.846Z,615.00
2023-04-25T00:05:51.802Z,615.00
2023-04-25T00:06:51.829Z,616.00
2023-04-25T00:07:51.898Z,616.00
2023-04-25T00:08:51.915Z,618.00
2023-04-25T00:09:51.980Z,616.00
2023-04-25T00:10:52.055Z,615.00
2023-04-25T00:11:52.075Z,614.00
2023-04-25T00:12:52.144Z,612.00
2023-04-25T00:13:52.214Z,613.00
2023-04-25T00:14:52.281Z,615.00
2023-04-25T00:15:52.427Z,613.00
2023-04-25T00:16:52.368Z,612.00
2023-04-25T00:17:52.461Z,613.00
2023-04-25T00:18:52.484Z,613.00
2023-04-25T00:19:52.473Z,613.00
2023-04-25T00:20:52.551Z,612.00
2023-04-25T00:21:52.550Z,612.00
2023-04-25T00:22:52.638Z,611.00
2023-04-25T00:23:52.834Z,612.00
2023-04-25T00:24:52.662Z,613.00
2023-04-25T00:25:52.689Z,613.00
2023-04-25T00:26:52.760Z,612.00
2023-04-25T00:27:52.769Z,613.00
2023-04-25T00:28:52.838Z,615.00
2023-04-25T00:29:52.864Z,613.00
2023-04-25T00:30:52.941Z,612.00
2023-04-25T00:31:52.999Z,609.00
2023-04-25T00:32:53.062Z,610.00
2023-04-25T00:33:53.290Z,611.00
2023-04-25T00:34:53.107Z,609.00
2023-04-25T00:35:53.120Z,609.00
2023-04-25T00:36:53.192Z,609.00
2023-04-25T00:37:53.225Z,610.00
2023-04-25T00:38:53.251Z,610.00
2023-04-25T00:39:55.248Z,610.00
2023-04-25T00:40:53.372Z,609.00
2023-04-25T00:41:53.435Z,610.00
2023-04-25T00:42:53.476Z,608.00
2023-04-25T00:43:53.702Z,609.00
2023-04-25T00:44:53.609Z,608.00
2023-04-25T00:45:53.629Z,608.00
2023-04-25T00:46:53.751Z,609.00
2023-04-25T00:47:53.810Z,612.00
2023-04-25T00:48:53.775Z,613.00
2023-04-25T00:49:53.841Z,615.00
2023-04-25T00:50:53.933Z,615.00
2023-04-25T00:51:53.938Z,615.00
2023-04-25T00:52:54.007Z,616.00
2023-04-25T00:53:54.123Z,618.00
2023-04-25T00:54:54.100Z,620.00
2023-04-25T00:55:54.135Z,620.00
2023-04-25T00:56:54.164Z,620.00
2023-04-25T00:57:54.197Z,620.00
2023-04-25T00:58:54.251Z,620.00
2023-04-25T00:59:54.306Z,621.00
2023-04-25T01:00:54.424Z,619.00
2023-04-25T01:01:54.409Z,619.00
2023-04-25T01:02:54.585Z,618.00
2023-04-25T01:03:54.860Z,618.00
2023-04-25T01:04:54.551Z,620.00
2023-04-25T01:05:54.652Z,619.00
2023-04-25T01:06:54.634Z,620.00
2023-04-25T01:07:54.708Z,620.00
2023-04-25T01:08:54.765Z,622.00
2023-04-25T01:09:54.830Z,622.00
2023-04-25T01:10:54.862Z,619.00
2023-04-25T01:11:54.898Z,619.00
2023-04-25T01:12:54.949Z,618.00
2023-04-25T01:13:55.009Z,618.00
2023-04-25T01:14:55.048Z,618.00
2023-04-25T01:15:55.062Z,619.00
2023-04-25T01:16:55.150Z,624.00
2023-04-25T01:17:55.206Z,624.00
2023-04-25T01:18:55.182Z,624.00
2023-04-25T01:19:55.248Z,623.00
2023-04-25T01:20:55.239Z,622.00
2023-04-25T01:21:55.257Z,621.00
2023-04-25T01:22:55.330Z,620.00
2023-04-25T01:23:55.335Z,622.00
2023-04-25T01:24:55.384Z,622.00
2023-04-25T01:25:55.430Z,622.00
2023-04-25T01:26:55.500Z,621.00
2023-04-25T01:27:55.547Z,621.00
2023-04-25T01:28:55.611Z,623.00
2023-04-25T01:29:55.618Z,625.00
2023-04-25T01:30:55.816Z,626.00
2023-04-25T01:31:55.723Z,627.00
2023-04-25T01:32:55.759Z,626.00
2023-04-25T01:33:55.757Z,627.00
2023-04-25T01:34:55.800Z,627.00
2023-04-25T01:35:55.830Z,628.00
2023-04-25T01:36:55.854Z,628.00
2023-04-25T01:37:55.930Z,628.00
2023-04-25T01:38:55.945Z,632.00
2023-04-25T01:39:56.271Z,630.00
2023-04-25T01:40:55.987Z,631.00
2023-04-25T01:41:57.417Z,632.00
2023-04-25T01:42:56.056Z,632.00
2023-04-25T01:43:56.125Z,633.00
2023-04-25T01:44:56.149Z,634.00
2023-04-25T01:45:56.256Z,636.00
2023-04-25T01:46:56.235Z,637.00
2023-04-25T01:47:56.324Z,637.00
2023-04-25T01:48:56.342Z,633.00
2023-04-25T01:49:56.391Z,630.00
2023-04-25T01:50:56.458Z,631.00
2023-04-25T01:51:56.495Z,632.00
2023-04-25T01:52:56.554Z,630.00
2023-04-25T01:53:56.592Z,629.00
2023-04-25T01:54:56.654Z,631.00
2023-04-25T01:55:56.728Z,630.00
2023-04-25T01:56:56.735Z,630.00
2023-04-25T01:57:56.793Z,629.00
2023-04-25T01:58:56.816Z,629.00
2023-04-25T01:59:56.904Z,627.00
2023-04-25T02:00:56.952Z,628.00
2023-04-25T02:01:57.062Z,626.00
2023-04-25T02:02:57.095Z,626.00
2023-04-25T02:03:57.496Z,627.00
2023-04-25T02:04:57.193Z,626.00
2023-04-25T02:05:57.213Z,627.00
2023-04-25T02:06:57.293Z,626.00
2023-04-25T02:07:57.293Z,625.00
2023-04-25T02:08:57.291Z,624.00
2023-04-25T02:09:57.330Z,623.00
2023-04-25T02:10:57.347Z,622.00
2023-04-25T02:11:57.382Z,623.00
2023-04-25T02:12:57.356Z,621.00
2023-04-25T02:13:57.405Z,621.00
2023-04-25T02:14:57.430Z,621.00
2023-04-25T02:15:57.572Z,623.00
2023-04-25T02:16:57.586Z,621.00
2023-04-25T02:17:57.501Z,619.00
2023-04-25T02:18:57.510Z,617.00
2023-04-25T02:19:57.560Z,616.00
2023-04-25T02:20:57.555Z,619.00
2023-04-25T02:21:57.572Z,618.00
2023-04-25T02:22:57.585Z,616.00
2023-04-25T02:23:57.602Z,617.00
2023-04-25T02:24:57.628Z,617.00
2023-04-25T02:25:57.649Z,617.00
2023-04-25T02:26:57.649Z,618.00
2023-04-25T02:27:57.671Z,617.00
2023-04-25T02:28:57.690Z,616.00
2023-04-25T02:29:57.725Z,616.00
2023-04-25T02:30:57.789Z,618.00
2023-04-25T02:31:57.813Z,618.00
2023-04-25T02:32:57.853Z,619.00
2023-04-25T02:33:57.806Z,618.00
2023-04-25T02:34:57.841Z,618.00
2023-04-25T02:35:57.840Z,620.00
2023-04-25T02:36:57.843Z,619.00
2023-04-25T02:37:57.848Z,616.00
2023-04-25T02:38:57.873Z,617.00
2023-04-25T02:39:57.892Z,617.00
2023-04-25T02:40:57.849Z,620.00
2023-04-25T02:41:57.859Z,621.00
2023-04-25T02:42:57.863Z,622.00
2023-04-25T02:43:57.851Z,624.00
2023-04-25T02:44:57.882Z,623.00
2023-04-25T02:45:57.844Z,623.00
2023-04-25T02:46:57.859Z,622.00
2023-04-25T02:47:57.941Z,623.00
2023-04-25T02:48:57.858Z,623.00
2023-04-25T02:49:57.866Z,625.00
2023-04-25T02:50:57.889Z,622.00
2023-04-25T02:51:57.856Z,625.00
2023-04-25T02:52:57.871Z,622.00
2023-04-25T02:53:57.890Z,622.00
2023-04-25T02:54:57.907Z,621.00
2023-04-25T02:55:57.925Z,621.00
2023-04-25T02:56:57.933Z,621.00
2023-04-25T02:57:57.923Z,620.00
2023-04-25T02:58:57.935Z,620.00
2023-04-25T02:59:57.941Z,621.00
2023-04-25T03:00:58.010Z,621.00
2023-04-25T03:01:57.939Z,619.00
2023-04-25T03:02:58.084Z,621.00
2023-04-25T03:03:57.965Z,622.00
2023-04-25T03:04:57.977Z,621.00
2023-04-25T03:05:57.956Z,620.00
2023-04-25T03:06:57.996Z,622.00
2023-04-25T03:07:57.987Z,623.00
2023-04-25T03:08:58.016Z,622.00
2023-04-25T03:09:57.971Z,624.00
2023-04-25T03:10:57.960Z,627.00
2023-04-25T03:11:58.004Z,627.00
2023-04-25T03:12:57.971Z,627.00
2023-04-25T03:13:57.953Z,623.00
2023-04-25T03:14:57.978Z,625.00
2023-04-25T03:15:57.953Z,627.00
2023-04-25T03:16:58.023Z,628.00
2023-04-25T03:17:57.995Z,628.00
2023-04-25T03:18:57.959Z,630.00
2023-04-25T03:19:57.966Z,626.00
2023-04-25T03:20:57.973Z,626.00
2023-04-25T03:21:57.946Z,624.00
2023-04-25T03:22:57.978Z,623.00
2023-04-25T03:23:57.947Z,624.00
2023-04-25T03:24:57.954Z,624.00
2023-04-25T03:25:57.959Z,622.00
2023-04-25T03:26:57.940Z,622.00
2023-04-25T03:27:57.953Z,622.00
2023-04-25T03:28:57.954Z,621.00
2023-04-25T03:29:57.935Z,619.00
2023-04-25T03:30:57.929Z,619.00
2023-04-25T03:31:57.974Z,618.00
2023-04-25T03:32:57.947Z,618.00
2023-04-25T03:33:57.916Z,618.00
2023-04-25T03:34:57.904Z,618.00
2023-04-25T03:35:57.870Z,621.00
2023-04-25T03:36:57.913Z,620.00
2023-04-25T03:37:57.898Z,622.00
2023-04-25T03:38:57.931Z,622.00
2023-04-25T03:39:57.878Z,621.00
2023-04-25T03:40:57.911Z,621.00
2023-04-25T03:41:57.871Z,619.00
2023-04-25T03:42:57.886Z,620.00
2023-04-25T03:43:57.871Z,621.00
2023-04-25T03:44:57.877Z,621.00
2023-04-25T03:45:57.928Z,620.00
2023-04-25T03:46:57.862Z,618.00
2023-04-25T03:47:57.918Z,621.00
2023-04-25T03:48:57.868Z,620.00
2023-04-25T03:49:57.861Z,620.00
2023-04-25T03:50:57.861Z,621.00
2023-04-25T03:51:57.895Z,620.00
2023-04-25T03:52:57.862Z,621.00
2023-04-25T03:53:57.888Z,623.00
2023-04-25T03:54:57.863Z,622.00
2023-04-25T03:55:57.869Z,623.00
2023-04-25T03:56:57.898Z,624.00
2023-04-25T03:57:57.870Z,624.00
2023-04-25T03:58:57.872Z,621.00
2023-04-25T03:59:57.892Z,619.00
2023-04-25T04:00:57.861Z,621.00
2023-04-25T04:01:57.859Z,621.00
2023-04-25T04:02:57.918Z,623.00
2023-04-25T04:03:58.197Z,621.00
2023-04-25T04:04:58.027Z,621.00
2023-04-25T04:05:57.940Z,621.00
2023-04-25T04:06:57.834Z,620.00
2023-04-25T04:07:57.832Z,619.00
2023-04-25T04:08:57.835Z,620.00
2023-04-25T04:09:57.829Z,617.00
2023-04-25T04:10:57.815Z,617.00
2023-04-25T04:11:57.816Z,621.00
2023-04-25T04:12:57.837Z,623.00
2023-04-25T04:13:57.800Z,621.00
2023-04-25T04:14:57.819Z,622.00
2023-04-25T04:15:57.839Z,621.00
2023-04-25T04:16:57.792Z,621.00
2023-04-25T04:17:57.830Z,624.00
2023-04-25T04:18:57.800Z,622.00
2023-04-25T04:19:57.802Z,622.00
2023-04-25T04:20:57.816Z,621.00
2023-04-25T04:21:57.807Z,621.00
2023-04-25T04:22:57.820Z,621.00
2023-04-25T04:23:57.825Z,623.00
2023-04-25T04:24:57.868Z,624.00
2023-04-25T04:25:57.815Z,626.00
2023-04-25T04:26:57.826Z,625.00
2023-04-25T04:27:57.846Z,627.00
2023-04-25T04:28:57.821Z,627.00
2023-04-25T04:29:57.860Z,624.00
2023-04-25T04:30:57.870Z,623.00
2023-04-25T04:31:57.872Z,622.00
2023-04-25T04:32:57.869Z,620.00
2023-04-25T04:33:57.821Z,622.00
2023-04-25T04:34:58.308Z,621.00
2023-04-25T04:35:57.869Z,623.00
2023-04-25T04:36:57.868Z,622.00
2023-04-25T04:37:57.835Z,622.00
2023-04-25T04:38:57.854Z,624.00
2023-04-25T04:39:57.826Z,622.00
2023-04-25T04:40:57.855Z,623.00
2023-04-25T04:41:57.830Z,620.00
2023-04-25T04:42:57.849Z,622.00
2023-04-25T04:43:57.864Z,622.00
2023-04-25T04:44:57.855Z,620.00
2023-04-25T04:45:57.836Z,619.00
2023-04-25T04:46:57.896Z,615.00
2023-04-25T04:47:57.898Z,618.00
2023-04-25T04:48:57.838Z,623.00
2023-04-25T04:49:57.846Z,623.00
2023-04-25T04:50:57.881Z,623.00
2023-04-25T04:51:59.665Z,622.00
2023-04-25T04:52:57.814Z,621.00
2023-04-25T04:53:57.817Z,622.00
2023-04-25T04:54:57.845Z,621.00
2023-04-25T04:55:57.826Z,622.00
2023-04-25T04:56:57.864Z,621.00
2023-04-25T04:57:57.842Z,623.00
2023-04-25T04:58:57.839Z,623.00
2023-04-25T04:59:57.828Z,624.00
2023-04-25T05:00:57.852Z,625.00
2023-04-25T05:01:57.838Z,624.00
2023-04-25T05:02:57.886Z,622.00
2023-04-25T05:03:58.260Z,621.00
2023-04-25T05:04:58.058Z,623.00
2023-04-25T05:05:57.805Z,623.00
2023-04-25T05:06:57.809Z,623.00
2023-04-25T05:07:57.798Z,620.00
2023-04-25T05:08:57.799Z,619.00
2023-04-25T05:09:57.807Z,617.00
2023-04-25T05:10:57.818Z,615.00
2023-04-25T05:11:57.802Z,615.00
2023-04-25T05:12:57.813Z,617.00
2023-04-25T05:13:57.789Z,617.00
2023-04-25T05:14:57.790Z,615.00
2023-04-25T05:15:57.789Z,616.00
2023-04-25T05:16:57.794Z,616.00
2023-04-25T05:17:57.868Z,617.00
2023-04-25T05:18:57.785Z,616.00
2023-04-25T05:19:57.800Z,617.00
2023-04-25T05:20:57.811Z,616.00
2023-04-25T05:21:57.789Z,615.00
2023-04-25T05:22:57.805Z,615.00
2023-04-25T05:23:57.766Z,615.00
2023-04-25T05:24:57.791Z,620.00
2023-04-25T05:25:57.811Z,621.00
2023-04-25T05:26:57.798Z,619.00
2023-04-25T05:27:57.793Z,618.00
2023-04-25T05:28:57.772Z,619.00
2023-04-25T05:29:57.757Z,619.00
2023-04-25T05:30:57.803Z,621.00
2023-04-25T05:31:57.930Z,622.00
2023-04-25T05:32:58.349Z,623.00
2023-04-25T05:33:57.918Z,631.00
2023-04-25T05:34:58.018Z,644.00
2023-04-25T05:35:58.031Z,688.00
2023-04-25T05:36:58.099Z,714.00
2023-04-25T05:37:58.386Z,929.00
2023-04-25T05:38:58.266Z,853.00
2023-04-25T05:39:58.267Z,964.00
2023-04-25T05:40:58.295Z,939.00
2023-04-25T05:41:58.325Z,919.00
2023-04-25T05:42:58.944Z,943.00
2023-04-25T05:43:59.621Z,971.00
2023-04-25T05:44:58.463Z,1026.00
2023-04-25T05:45:58.508Z,1063.00
2023-04-25T05:46:58.444Z,1124.00
2023-04-25T05:47:58.910Z,1142.00
2023-04-25T05:48:58.468Z,1227.00
2023-04-25T05:49:58.478Z,1200.00
2023-04-25T05:50:58.885Z,1173.00
2023-04-25T05:51:58.487Z,1146.00
2023-04-25T05:52:58.502Z,1150.00
2023-04-25T05:53:58.506Z,1149.00
2023-04-25T05:54:58.520Z,1184.00
2023-04-25T05:55:58.565Z,1193.00
2023-04-25T05:56:58.659Z,1206.00
2023-04-25T05:57:58.595Z,1235.00
2023-04-25T05:58:58.592Z,1238.00
2023-04-25T05:59:58.564Z,1226.00
2023-04-25T06:00:58.563Z,1211.00
2023-04-25T06:01:58.607Z,1236.00
2023-04-25T06:02:58.679Z,1247.00
2023-04-25T06:03:58.975Z,1256.00
2023-04-25T06:04:58.816Z,1241.00
2023-04-25T06:05:58.643Z,1239.00
2023-04-25T06:06:58.590Z,1241.00
2023-04-25T06:07:58.575Z,1222.00
2023-04-25T06:08:58.576Z,1174.00
2023-04-25T06:09:58.622Z,1197.00
2023-04-25T06:10:58.642Z,1214.00
2023-04-25T06:11:58.598Z,1225.00
2023-04-25T06:12:58.585Z,1221.00
2023-04-25T06:13:58.587Z,1234.00
2023-04-25T06:14:58.618Z,1248.00
2023-04-25T06:15:58.627Z,1258.00
2023-04-25T06:16:58.592Z,1258.00
2023-04-25T06:17:58.626Z,1297.00
2023-04-25T06:18:58.634Z,1312.00
2023-04-25T06:19:58.601Z,1297.00
2023-04-25T06:20:58.624Z,1297.00
2023-04-25T06:21:58.694Z,1303.00
2023-04-25T06:22:58.747Z,1322.00
2023-04-25T06:23:58.798Z,1345.00
2023-04-25T06:24:58.878Z,1390.00
2023-04-25T06:25:58.945Z,1372.00
2023-04-25T06:26:58.983Z,1376.00
2023-04-25T06:27:59.051Z,1374.00
2023-04-25T06:28:59.111Z,1440.00
2023-04-25T06:29:59.197Z,1436.00
2023-04-25T06:30:59.237Z,1441.00
2023-04-25T06:31:59.289Z,1445.00
2023-04-25T06:32:59.425Z,1448.00
2023-04-25T06:33:59.399Z,1444.00
2023-04-25T06:34:59.505Z,1472.00
2023-04-25T06:35:59.445Z,1494.00
2023-04-25T06:36:59.500Z,1514.00
2023-04-25T06:37:59.870Z,1575.00
2023-04-25T06:38:59.564Z,1569.00
2023-04-25T06:39:59.583Z,1582.00
2023-04-25T06:40:59.655Z,1704.00
2023-04-25T06:41:59.632Z,1716.00
2023-04-25T06:42:59.909Z,1716.00
2023-04-25T06:43:59.671Z,1719.00
2023-04-25T06:44:59.674Z,1707.00
2023-04-25T06:45:59.677Z,1700.00
2023-04-25T06:46:59.708Z,1693.00
2023-04-25T06:47:59.749Z,1698.00
2023-04-25T06:48:59.730Z,1700.00
2023-04-25T06:49:59.729Z,1705.00
2023-04-25T06:50:59.756Z,1709.00
2023-04-25T06:51:59.763Z,1706.00
2023-04-25T06:52:59.757Z,1701.00
2023-04-25T06:53:59.826Z,1704.00
2023-04-25T06:54:59.797Z,1718.00
2023-04-25T06:55:59.874Z,1743.00
2023-04-25T06:56:59.855Z,1771.00
2023-04-25T06:57:59.892Z,1853.00
2023-04-25T06:58:59.829Z,1852.00
2023-04-25T07:00:02.085Z,1860.00
2023-04-25T07:01:00.152Z,1873.00
2023-04-25T07:02:00.046Z,1898.00
2023-04-25T07:03:00.168Z,1969.00
2023-04-25T07:04:00.381Z,1973.00
2023-04-25T07:05:00.056Z,1983.00
2023-04-25T07:06:00.090Z,2000.00
2023-04-25T07:07:00.091Z,2020.00
2023-04-25T07:08:00.054Z,2062.00
2023-04-25T07:09:00.059Z,2105.00
2023-04-25T07:10:00.056Z,2136.00
2023-04-25T07:11:00.071Z,2150.00
2023-04-25T07:12:00.050Z,2163.00
2023-04-25T07:13:00.376Z,2179.00
2023-04-25T07:14:00.066Z,2200.00
2023-04-25T07:15:00.043Z,2227.00
2023-04-25T07:16:00.415Z,2301.00
2023-04-25T07:17:00.177Z,2318.00
2023-04-25T07:18:00.479Z,2325.00
2023-04-25T07:19:00.123Z,2336.00
2023-04-25T07:20:00.193Z,2354.00
2023-04-25T07:21:00.144Z,2388.00
2023-04-25T07:22:00.205Z,2429.00
2023-04-25T07:23:00.289Z,2448.00
2023-04-25T07:24:00.299Z,2462.00
2023-04-25T07:25:00.374Z,2484.00
2023-04-25T07:26:00.426Z,2514.00
2023-04-25T07:27:00.464Z,2557.00
2023-04-25T07:28:00.573Z,2587.00
2023-04-25T07:29:00.613Z,2611.00
2023-04-25T07:30:00.697Z,2643.00
2023-04-25T07:31:00.744Z,2674.00
2023-04-25T07:32:00.877Z,2680.00
2023-04-25T07:33:01.476Z,2675.00
2023-04-25T07:34:02.234Z,2638.00
2023-04-25T07:35:01.082Z,2487.00
2023-04-25T07:36:01.403Z,2473.00
2023-04-25T07:37:01.087Z,2472.00
2023-04-25T07:38:01.948Z,2213.00
2023-04-25T07:39:01.108Z,1908.00
2023-04-25T07:40:01.118Z,1944.00
2023-04-25T07:41:01.401Z,1882.00
2023-04-25T07:42:01.147Z,1729.00
2023-04-25T07:43:01.341Z,1676.00
2023-04-25T07:44:01.157Z,1620.00
2023-04-25T07:45:01.172Z,1539.00
2023-04-25T07:46:01.268Z,1530.00
2023-04-25T07:47:03.161Z,1487.00
2023-04-25T07:48:01.261Z,1450.00
2023-04-25T07:49:01.930Z,1378.00
2023-04-25T07:50:01.211Z,1333.00
2023-04-25T07:51:01.197Z,1320.00
2023-04-25T07:52:01.210Z,1309.00
2023-04-25T07:53:01.502Z,1292.00
2023-04-25T07:54:01.423Z,1293.00
2023-04-25T07:55:01.189Z,1281.00
2023-04-25T07:56:01.206Z,1245.00
2023-04-25T07:57:01.168Z,1224.00
2023-04-25T07:58:01.255Z,1134.00
2023-04-25T07:59:01.387Z,1112.00
2023-04-25T08:00:01.187Z,1102.00
2023-04-25T08:01:01.214Z,1096.00
2023-04-25T08:02:01.208Z,1084.00
2023-04-25T08:03:01.253Z,1069.00
2023-04-25T08:04:01.414Z,1057.00
2023-04-25T08:05:01.621Z,1049.00
2023-04-25T08:06:03.433Z,1034.00
2023-04-25T08:07:01.109Z,1022.00
2023-04-25T08:08:01.081Z,1017.00
2023-04-25T08:09:01.425Z,1006.00
2023-04-25T08:10:01.114Z,985.00
2023-04-25T08:11:01.423Z,970.00
2023-04-25T08:12:01.134Z,948.00
2023-04-25T08:13:01.063Z,933.00
2023-04-25T08:14:01.078Z,923.00
2023-04-25T08:15:01.095Z,921.00
2023-04-25T08:16:01.448Z,926.00
2023-04-25T08:17:01.181Z,919.00
2023-04-25T08:18:01.074Z,915.00
2023-04-25T08:19:01.104Z,916.00
2023-04-25T08:20:01.026Z,907.00
2023-04-25T08:21:01.030Z,898.00
2023-04-25T08:22:00.987Z,892.00
2023-04-25T08:23:00.963Z,886.00
2023-04-25T08:24:00.985Z,877.00
2023-04-25T08:25:00.959Z,957.00
2023-04-25T08:26:01.041Z,1069.00
2023-04-25T08:27:01.907Z,1060.00
2023-04-25T08:28:01.103Z,945.00
2023-04-25T08:29:01.413Z,901.00
2023-04-25T08:30:00.920Z,862.00
2023-04-25T08:31:01.053Z,845.00
2023-04-25T08:32:00.977Z,833.00
2023-04-25T08:33:00.928Z,819.00
2023-04-25T08:34:00.969Z,811.00
2023-04-25T08:35:01.001Z,798.00
2023-04-25T08:36:00.974Z,792.00
2023-04-25T08:37:01.022Z,787.00
2023-04-25T08:38:00.918Z,993.00
2023-04-25T08:39:01.079Z,1048.00
2023-04-25T08:40:00.861Z,1059.00
2023-04-25T08:41:00.869Z,1061.00
2023-04-25T08:42:00.929Z,1248.00
2023-04-25T08:43:00.857Z,1229.00
2023-04-25T08:44:00.923Z,1310.00
2023-04-25T08:45:00.872Z,1395.00
2023-04-25T08:46:00.813Z,1390.00
2023-04-25T08:47:00.853Z,1412.00
2023-04-25T08:48:00.856Z,1426.00
2023-04-25T08:49:00.794Z,1439.00
2023-04-25T08:50:00.815Z,1449.00
2023-04-25T08:51:00.947Z,1445.00
2023-04-25T08:52:00.773Z,1330.00
2023-04-25T08:53:00.954Z,1359.00
2023-04-25T08:54:08.926Z,1365.00
2023-04-25T08:55:01.843Z,1279.00
2023-04-25T08:56:00.769Z,1247.00
2023-04-25T08:57:00.768Z,1212.00
2023-04-25T08:58:00.797Z,1200.00
2023-04-25T08:59:02.458Z,1152.00
2023-04-25T09:00:00.850Z,1065.00
2023-04-25T09:01:00.770Z,1091.00
2023-04-25T09:02:00.737Z,1088.00
2023-04-25T09:03:00.924Z,1153.00
2023-04-25T09:04:00.802Z,1186.00
2023-04-25T09:05:00.695Z,1197.00
2023-04-25T09:06:00.726Z,1048.00
2023-04-25T09:07:00.717Z,983.00
2023-04-25T09:08:00.750Z,985.00
2023-04-25T09:09:00.726Z,935.00
2023-04-25T09:10:00.728Z,950.00
2023-04-25T09:11:00.716Z,1026.00
2023-04-25T09:12:00.858Z,1053.00
2023-04-25T09:13:00.726Z,1065.00
2023-04-25T09:14:00.734Z,1069.00
2023-04-25T09:15:00.734Z,1078.00
2023-04-25T09:16:00.734Z,1077.00
2023-04-25T09:17:01.031Z,1078.00
2023-04-25T09:18:00.761Z,1085.00
2023-04-25T09:19:00.772Z,1101.00
2023-04-25T09:20:00.736Z,1119.00
2023-04-25T09:21:02.241Z,1136.00
2023-04-25T09:22:01.714Z,1155.00
2023-04-25T09:23:00.726Z,1167.00
2023-04-25T09:24:00.707Z,1156.00
2023-04-25T09:25:00.717Z,1155.00
2023-04-25T09:26:00.676Z,1144.00
2023-04-25T09:27:00.708Z,1135.00
2023-04-25T09:28:00.740Z,1124.00
2023-04-25T09:29:00.669Z,1115.00
2023-04-25T09:30:00.747Z,1107.00
2023-04-25T09:31:00.838Z,1102.00
2023-04-25T09:32:00.972Z,1098.00
2023-04-25T09:33:00.985Z,1098.00
2023-04-25T09:34:01.325Z,1036.00
2023-04-25T09:35:01.006Z,900.00
2023-04-25T09:36:00.978Z,877.00
2023-04-25T09:37:01.485Z,840.00
2023-04-25T09:38:00.989Z,824.00
2023-04-25T09:39:01.036Z,799.00
2023-04-25T09:40:01.009Z,774.00
2023-04-25T09:41:02.155Z,765.00
2023-04-25T09:42:01.146Z,750.00
2023-04-25T09:43:01.126Z,716.00
2023-04-25T09:44:01.531Z,704.00
2023-04-25T09:45:01.215Z,690.00
2023-04-25T09:46:01.309Z,679.00
2023-04-25T09:47:01.506Z,670.00
2023-04-25T09:48:01.353Z,660.00
2023-04-25T09:49:01.473Z,650.00
2023-04-25T09:50:01.535Z,642.00
2023-04-25T09:51:02.475Z,635.00
2023-04-25T09:52:02.086Z,631.00
2023-04-25T09:53:01.593Z,626.00
2023-04-25T09:54:01.658Z,613.00
2023-04-25T09:55:01.761Z,609.00
2023-04-25T09:56:01.821Z,607.00
2023-04-25T09:57:01.929Z,610.00
2023-04-25T09:58:02.019Z,608.00
2023-04-25T09:59:02.015Z,605.00
2023-04-25T10:00:02.130Z,599.00
2023-04-25T10:01:02.126Z,593.00
2023-04-25T10:02:02.184Z,590.00
2023-04-25T10:03:02.254Z,586.00
2023-04-25T10:04:02.697Z,588.00
2023-04-25T10:05:02.542Z,591.00
2023-04-25T10:06:03.228Z,594.00
2023-04-25T10:07:02.490Z,596.00
2023-04-25T10:08:02.184Z,595.00
2023-04-25T10:09:02.235Z,593.00
2023-04-25T10:10:02.205Z,589.00
2023-04-25T10:11:02.180Z,588.00
2023-04-25T10:12:02.518Z,583.00
2023-04-25T10:13:02.239Z,575.00
2023-04-25T10:14:02.189Z,569.00
2023-04-25T10:15:02.240Z,561.00
2023-04-25T10:16:02.386Z,554.00
2023-04-25T10:17:02.395Z,550.00
2023-04-25T10:18:02.324Z,543.00
2023-04-25T10:19:02.491Z,538.00
2023-04-25T10:20:02.449Z,534.00
2023-04-25T10:21:02.423Z,529.00
2023-04-25T10:22:02.520Z,529.00
2023-04-25T10:23:02.448Z,528.00
2023-04-25T10:24:02.510Z,526.00
2023-04-25T10:25:02.518Z,525.00
2023-04-25T10:26:02.512Z,525.00
2023-04-25T10:27:02.967Z,569.00
2023-04-25T10:28:02.552Z,763.00
2023-04-25T10:29:02.562Z,781.00
2023-04-25T10:30:02.573Z,795.00
2023-04-25T10:31:02.711Z,898.00
2023-04-25T10:32:02.636Z,979.00
2023-04-25T10:33:02.681Z,1035.00
2023-04-25T10:34:02.781Z,1109.00
2023-04-25T10:35:02.783Z,1134.00
2023-04-25T10:36:02.812Z,1162.00
2023-04-25T10:37:02.823Z,1175.00
2023-04-25T10:38:02.891Z,1197.00
2023-04-25T10:39:02.856Z,1225.00
2023-04-25T10:40:02.871Z,1281.00
2023-04-25T10:41:02.851Z,1303.00
2023-04-25T10:42:02.850Z,1328.00
2023-04-25T10:43:02.821Z,1385.00
2023-04-25T10:44:02.822Z,1431.00
2023-04-25T10:45:02.916Z,1439.00
2023-04-25T10:46:02.872Z,1451.00
2023-04-25T10:47:03.081Z,1475.00
2023-04-25T10:48:03.043Z,1515.00
2023-04-25T10:49:03.054Z,1557.00
2023-04-25T10:50:03.514Z,1572.00
2023-04-25T10:51:03.185Z,1590.00
2023-04-25T10:52:03.209Z,1624.00
2023-04-25T10:53:03.275Z,1679.00
2023-04-25T10:54:03.333Z,1694.00
2023-04-25T10:55:03.395Z,1711.00
2023-04-25T10:56:03.407Z,1727.00
2023-04-25T10:57:03.470Z,1760.00
2023-04-25T10:58:03.501Z,1788.00
2023-04-25T10:59:03.519Z,1807.00
2023-04-25T11:00:03.565Z,1825.00
2023-04-25T11:01:03.632Z,1840.00
2023-04-25T11:02:03.723Z,1872.00
2023-04-25T11:03:03.801Z,1895.00
2023-04-25T11:04:03.870Z,1912.00
2023-04-25T11:05:03.715Z,1930.00
2023-04-25T11:06:03.749Z,1993.00
2023-04-25T11:07:07.135Z,1984.00
2023-04-25T11:09:04.733Z,2064.00
2023-04-25T11:10:03.969Z,2068.00
2023-04-25T11:11:03.733Z,2073.00
2023-04-25T11:12:03.990Z,2089.00
2023-04-25T11:13:03.719Z,2176.00
2023-04-25T11:14:04.484Z,2188.00
2023-04-25T11:14:38.051Z,2040.00
2023-04-25T11:15:03.990Z,2198.00
2023-04-25T11:16:12.533Z,2210.00
2023-04-25T11:17:05.087Z,2244.00
2023-04-25T11:18:04.063Z,2245.00
2023-04-25T11:19:03.914Z,2123.00
2023-04-25T11:20:03.935Z,2162.00
2023-04-25T11:21:03.918Z,2167.00
2023-04-25T11:22:04.063Z,2168.00
2023-04-25T11:24:03.985Z,2173.00
2023-04-25T11:25:03.996Z,2173.00
2023-04-25T11:26:04.081Z,2168.00
2023-04-25T11:27:04.472Z,2165.00
2023-04-25T11:28:04.103Z,2168.00
2023-04-25T11:29:04.121Z,2166.00
2023-04-25T11:30:04.175Z,2165.00
2023-04-25T11:31:04.194Z,2163.00
2023-04-25T11:32:04.566Z,2157.00
2023-04-25T11:33:04.393Z,2152.00
2023-04-25T11:34:04.326Z,2146.00
2023-04-25T11:35:04.378Z,2141.00
2023-04-25T11:36:04.439Z,2129.00
2023-04-25T11:37:04.509Z,2126.00
2023-04-25T11:38:04.535Z,2124.00
2023-04-25T11:39:04.915Z,2119.00
2023-04-25T11:40:04.649Z,2110.00
2023-04-25T11:41:04.740Z,2105.00
2023-04-25T11:42:08.012Z,2098.00
2023-04-25T11:43:05.755Z,2091.00
2023-04-25T11:44:04.897Z,2087.00
2023-04-25T11:45:04.810Z,2080.00
2023-04-25T11:46:04.747Z,2072.00
2023-04-25T11:47:04.738Z,2069.00
2023-04-25T11:48:04.916Z,2057.00
2023-04-25T11:49:04.722Z,2038.00
2023-04-25T11:50:04.719Z,2026.00
2023-04-25T11:51:04.698Z,2016.00
2023-04-25T11:52:04.715Z,2005.00
2023-04-25T11:53:04.739Z,1998.00
2023-04-25T11:54:04.796Z,1991.00
2023-04-25T11:55:04.883Z,1980.00
2023-04-25T11:56:05.012Z,1972.00
2023-04-25T11:57:04.932Z,1964.00
2023-04-25T11:58:05.000Z,1957.00
2023-04-25T11:59:05.042Z,1951.00
2023-04-25T12:00:05.117Z,1943.00
2023-04-25T12:01:05.152Z,1935.00
2023-04-25T12:02:05.186Z,1930.00
2023-04-25T12:03:05.353Z,1919.00
2023-04-25T12:04:05.696Z,1914.00
2023-04-25T12:05:21.651Z,1906.00
2023-04-25T12:06:06.504Z,1904.00
2023-04-25T12:07:05.339Z,1898.00
2023-04-25T12:08:05.340Z,1897.00
2023-04-25T12:09:05.404Z,1890.00
2023-04-25T12:10:05.480Z,1884.00
2023-04-25T12:11:05.305Z,1876.00
2023-04-25T12:12:05.378Z,1861.00
2023-04-25T12:13:05.272Z,1856.00
2023-04-25T12:14:05.280Z,1845.00
2023-04-25T12:15:05.287Z,1841.00
2023-04-25T12:16:05.279Z,1831.00
2023-04-25T12:17:05.370Z,1817.00
2023-04-25T12:18:05.391Z,1809.00
2023-04-25T12:19:05.422Z,1797.00
2023-04-25T12:20:05.548Z,1788.00